KADW/ADW METAR and TAF weather

Enter ICAO airport designator
Station Type Date Time Source
KADW METAR 2019/04/26 03:56 UTC NOAA

KADW 260356Z 07004KT 7SM FEW100 15/09 A2983 RMK AO2A SLP107 P0000 T01540093 $


Station Type Date Time Source
KADW Decoded METAR 2019/04/26 03:56 UTC NOAA

Camp Springs / Andrews Air Force Base, MD, United States (KADW) 38-49N 076-51W 88M
Apr 25, 2019 - 11:56 PM EDT / 2019.04.26 0356 UTC
Wind: from the ENE (070 degrees) at 5 MPH (4 KT):0
Visibility: 7 mile(s):0
Sky conditions: mostly clear
Precipitation last hour: A trace
Temperature: 59.7 F (15.4 C)
Dew Point: 48.7 F (9.3 C)
Relative Humidity: 66%
Pressure (altimeter): 29.83 in. Hg (1010 hPa)
ob: KADW 260356Z 07004KT 7SM FEW100 15/09 A2983 RMK AO2A SLP107 P0000 T01540093
cycle: 4

Station Type Date Time Source
KADW TAF 2019/04/26 01:38 UTC NOAA

TAF COR KADW 260100Z 2601/2707 10009KT 9999 SCT030 BKN090 QNH2972INS
BECMG 2607/2608 08006KT 8000 BR BKN020 BKN080 QNH2967INS
BECMG 2611/2612 14006KT 9999 NSW FEW020 QNH2947INS
BECMG 2616/2617 18015G25KT 8000 -SHRA SCT020 BKN030 520003 QNH2934INS
TEMPO 2617/2621 20020G30KT 4800 -TSRA OVC018CB
BECMG 2622/2623 29012G18KT 9999 NSW FEW030 SCT100 520003 QNH2936INS TX22/2618Z TN13/2609Z

Example: see airport list